createdAt,value
2022-09-21T09:15:40.423Z,21.20
2022-09-21T09:18:23.647Z,21.20
2022-09-21T09:21:31.425Z,21.00
2022-09-21T09:24:16.919Z,21.10
2022-09-21T09:27:02.026Z,21.30
2022-09-21T09:29:44.083Z,21.40
2022-09-21T09:32:17.218Z,21.50
2022-09-21T09:34:56.670Z,21.80
2022-09-21T09:37:32.053Z,22.10
2022-09-21T09:40:01.283Z,22.00
2022-09-21T09:42:49.654Z,22.20
2022-09-21T09:45:54.277Z,22.00
2022-09-21T09:48:55.126Z,22.30
2022-09-21T09:51:22.214Z,22.60
2022-09-21T09:53:49.937Z,22.70
2022-09-21T09:56:18.949Z,22.60
2022-09-21T09:58:59.502Z,22.70
2022-09-21T10:01:59.682Z,22.90
2022-09-21T10:04:26.820Z,23.20
2022-09-21T10:06:53.932Z,23.60
2022-09-21T10:09:33.283Z,23.90
2022-09-21T10:12:24.821Z,24.00
2022-09-21T10:14:56.223Z,24.20
2022-09-21T10:17:25.446Z,23.70
2022-09-21T10:20:05.542Z,23.20
2022-09-21T10:22:32.406Z,22.70
2022-09-21T10:25:01.650Z,22.20
2022-09-21T10:27:36.066Z,21.40
2022-09-21T10:30:03.709Z,20.80
2022-09-21T10:32:31.179Z,20.60
2022-09-21T10:35:12.712Z,20.50
2022-09-21T10:37:42.513Z,20.50
2022-09-21T10:40:22.196Z,20.40
2022-09-21T10:42:53.719Z,20.10
2022-09-21T10:45:28.137Z,20.00
2022-09-21T10:48:17.574Z,19.90
2022-09-21T10:50:51.402Z,19.90
2022-09-21T10:53:51.138Z,19.90
2022-09-21T10:56:20.926Z,20.00
2022-09-21T10:59:18.786Z,19.90
2022-09-21T11:01:48.856Z,19.90
2022-09-21T11:04:26.104Z,19.70
2022-09-21T11:07:24.859Z,19.60
2022-09-21T11:10:03.428Z,19.50
2022-09-21T11:13:26.094Z,19.40
2022-09-21T11:16:14.055Z,19.40
2022-09-21T11:19:49.260Z,19.20
2022-09-21T11:22:44.310Z,19.20
2022-09-21T11:25:28.598Z,19.10
2022-09-21T11:28:24.106Z,19.10
2022-09-21T11:31:15.343Z,19.00
2022-09-21T11:34:03.807Z,18.90
2022-09-21T11:36:44.467Z,18.90
2022-09-21T11:39:39.184Z,18.90
2022-09-21T11:42:24.612Z,18.80
2022-09-21T11:44:57.002Z,18.90
2022-09-21T11:48:08.244Z,18.90
2022-09-21T11:54:14.003Z,18.70
2022-09-21T11:57:06.763Z,18.70
2022-09-21T11:59:55.983Z,18.70
2022-09-21T12:03:01.574Z,18.70
2022-09-21T12:06:02.229Z,18.80
2022-09-21T12:08:35.482Z,18.80
2022-09-21T12:11:33.044Z,18.80
2022-09-21T12:14:25.565Z,18.80
2022-09-21T12:17:23.262Z,18.90
2022-09-21T12:20:19.133Z,19.40
2022-09-21T12:22:51.206Z,20.10
2022-09-21T12:25:28.321Z,20.80
2022-09-21T12:28:24.484Z,21.50
2022-09-21T12:31:02.028Z,22.10
2022-09-21T12:33:58.097Z,22.70
2022-09-21T12:36:41.575Z,23.20
2022-09-21T12:39:47.024Z,23.70
2022-09-21T12:42:40.341Z,23.70
2022-09-21T12:45:32.511Z,23.30
2022-09-21T12:48:28.910Z,22.60
2022-09-21T12:51:05.037Z,22.00
2022-09-21T12:53:38.314Z,21.50
2022-09-21T12:56:49.844Z,21.20
2022-09-21T12:59:31.230Z,20.90
2022-09-21T13:02:15.918Z,20.70
2022-09-21T13:04:50.315Z,20.50
2022-09-21T13:07:42.617Z,20.40
2022-09-21T13:10:28.057Z,20.30
2022-09-21T13:13:03.805Z,20.20
2022-09-21T13:15:43.077Z,20.10
2022-09-21T13:18:36.366Z,20.00
2022-09-21T13:21:24.103Z,19.90
2022-09-21T13:24:07.637Z,19.80
2022-09-21T13:26:40.720Z,19.90
2022-09-21T13:29:19.943Z,19.90
2022-09-21T13:31:59.859Z,20.20
2022-09-21T13:34:39.970Z,20.70
2022-09-21T13:37:23.635Z,21.30
2022-09-21T13:40:03.154Z,21.90
2022-09-21T13:42:29.996Z,22.60
2022-09-21T13:45:21.262Z,22.70
2022-09-21T13:47:53.590Z,23.00
2022-09-21T13:50:39.238Z,23.00
2022-09-21T13:53:25.055Z,22.80
2022-09-21T13:56:00.672Z,22.90
2022-09-21T13:58:34.825Z,22.60
2022-09-21T14:01:05.299Z,22.10
2022-09-21T14:03:40.935Z,21.60
2022-09-21T14:06:18.737Z,21.20
2022-09-21T14:09:01.934Z,20.90
2022-09-21T14:11:33.534Z,20.60
2022-09-21T14:14:12.207Z,20.50
2022-09-21T14:16:39.894Z,20.50
2022-09-21T14:19:19.211Z,20.50
2022-09-21T14:22:10.571Z,20.60
2022-09-21T14:24:41.744Z,20.80
2022-09-21T14:27:30.466Z,20.90
2022-09-21T14:30:20.111Z,20.70
2022-09-21T14:33:10.489Z,20.90
2022-09-21T14:35:43.111Z,21.40
2022-09-21T14:38:28.547Z,21.90
2022-09-21T14:41:07.349Z,22.10
2022-09-21T14:43:37.347Z,22.00
2022-09-21T14:46:24.496Z,21.90
2022-09-21T14:49:31.678Z,21.60
2022-09-21T14:52:32.142Z,21.30
2022-09-21T14:55:45.765Z,21.00
2022-09-21T14:58:45.235Z,20.70
2022-09-21T15:01:31.416Z,20.40
2022-09-21T15:04:56.977Z,20.20
2022-09-21T15:08:38.575Z,20.10
2022-09-21T15:11:30.662Z,19.90
2022-09-21T15:15:02.859Z,19.80
2022-09-21T15:17:39.660Z,19.70
2022-09-21T15:20:23.684Z,19.70
2022-09-21T15:22:55.828Z,19.70
2022-09-21T15:25:25.677Z,19.80
2022-09-21T15:27:53.285Z,19.70
2022-09-21T15:30:33.193Z,19.60
2022-09-21T15:33:02.693Z,19.50
2022-09-21T15:35:32.582Z,19.30
2022-09-21T15:38:01.196Z,19.20
2022-09-21T15:40:33.910Z,19.20
2022-09-21T15:43:11.531Z,19.10
2022-09-21T15:46:00.885Z,19.00
2022-09-21T15:48:34.234Z,18.90
2022-09-21T15:51:14.527Z,18.70
2022-09-21T15:53:50.027Z,18.60
2022-09-21T15:56:25.592Z,18.50
2022-09-21T15:59:08.500Z,18.40
2022-09-21T16:01:47.443Z,18.30
2022-09-21T16:04:21.781Z,18.30
2022-09-21T16:07:06.569Z,18.20
2022-09-21T16:09:43.190Z,18.10
2022-09-21T16:12:39.966Z,17.90
2022-09-21T16:15:31.934Z,17.80
2022-09-21T16:18:05.122Z,17.70
2022-09-21T16:20:39.808Z,17.60
2022-09-21T16:23:29.481Z,17.50
2022-09-21T16:26:02.101Z,17.50
2022-09-21T16:28:36.122Z,17.40
2022-09-21T16:31:29.821Z,17.40
2022-09-21T16:34:21.753Z,17.30
2022-09-21T16:36:54.622Z,17.20
2022-09-21T16:39:22.633Z,17.10
2022-09-21T16:41:59.928Z,17.00
2022-09-21T16:44:36.755Z,16.90
2022-09-21T16:47:04.471Z,16.80
2022-09-21T16:49:34.791Z,16.70
2022-09-21T16:52:02.117Z,16.60
2022-09-21T16:54:30.133Z,16.50
2022-09-21T16:57:00.973Z,16.50
2022-09-21T16:59:29.182Z,16.50
2022-09-21T17:01:59.047Z,16.40
2022-09-21T17:04:29.330Z,16.40
2022-09-21T17:06:57.699Z,16.30
2022-09-21T17:09:38.358Z,16.30
2022-09-21T17:12:09.019Z,16.10
2022-09-21T17:14:39.288Z,16.00
2022-09-21T17:17:22.790Z,15.90
2022-09-21T17:19:52.713Z,15.80
2022-09-21T17:22:20.550Z,15.70
2022-09-21T17:24:52.126Z,15.60
2022-09-21T17:27:25.264Z,15.50
2022-09-21T17:29:53.659Z,15.40
2022-09-21T17:32:23.282Z,15.30
2022-09-21T17:35:32.827Z,15.10
2022-09-21T17:38:00.463Z,15.00
2022-09-21T17:40:27.908Z,14.90
2022-09-21T17:43:13.294Z,14.80
2022-09-21T17:46:03.509Z,14.70
2022-09-21T17:48:34.095Z,14.60
2022-09-21T17:51:01.793Z,14.60
2022-09-21T17:53:36.831Z,14.50
2022-09-21T17:56:28.341Z,14.40
2022-09-21T17:59:04.543Z,14.30
2022-09-21T18:01:39.515Z,14.20
2022-09-21T18:04:08.217Z,14.10
2022-09-21T18:06:35.603Z,14.00
2022-09-21T18:09:03.594Z,13.90
2022-09-21T18:12:12.304Z,13.80
2022-09-21T18:15:14.193Z,13.70
2022-09-21T18:18:06.414Z,13.60
2022-09-21T18:20:54.021Z,13.50
2022-09-21T18:24:03.230Z,13.50
2022-09-21T18:26:30.757Z,13.40
2022-09-21T18:28:58.193Z,13.30
2022-09-21T18:32:28.323Z,13.30
2022-09-21T18:35:26.166Z,13.20
2022-09-21T18:38:22.398Z,13.10
2022-09-21T18:41:11.100Z,13.10
2022-09-21T18:44:13.045Z,12.90
2022-09-21T18:46:58.846Z,12.90
2022-09-21T18:50:02.904Z,12.80
2022-09-21T18:52:59.599Z,12.80
2022-09-21T18:55:32.954Z,12.70
2022-09-21T18:58:01.013Z,12.60
2022-09-21T19:00:35.255Z,12.60
2022-09-21T19:03:23.352Z,12.50
2022-09-21T19:06:27.223Z,12.50
2022-09-21T19:09:14.345Z,12.40
2022-09-21T19:11:52.293Z,12.30
2022-09-21T19:14:29.667Z,12.30
2022-09-21T19:17:26.645Z,12.30
2022-09-21T19:20:12.315Z,12.20
2022-09-21T19:23:13.378Z,12.10
2022-09-21T19:25:51.766Z,12.10
2022-09-21T19:28:51.577Z,12.10
2022-09-21T19:31:19.630Z,12.00
2022-09-21T19:33:50.830Z,12.00
2022-09-21T19:36:20.395Z,11.90
2022-09-21T19:38:47.974Z,11.90
2022-09-21T19:41:53.754Z,11.90
2022-09-21T19:44:54.546Z,11.80
2022-09-21T19:47:39.254Z,11.80
2022-09-21T19:50:19.092Z,11.70
2022-09-21T19:52:46.841Z,11.60
2022-09-21T19:55:36.302Z,11.60
2022-09-21T19:58:23.310Z,11.60
2022-09-21T20:00:56.077Z,11.50
2022-09-21T20:03:41.263Z,11.50
2022-09-21T20:06:26.354Z,11.40
2022-09-21T20:09:18.979Z,11.40
2022-09-21T20:11:58.006Z,11.40
2022-09-21T20:15:07.857Z,11.30
2022-09-21T20:17:46.206Z,11.20
2022-09-21T20:20:23.968Z,11.10
2022-09-21T20:22:51.265Z,11.10
2022-09-21T20:25:33.693Z,11.00
2022-09-21T20:28:02.184Z,11.00
2022-09-21T20:30:33.089Z,11.00
2022-09-21T20:33:10.734Z,10.90
2022-09-21T20:35:37.814Z,10.90
2022-09-21T20:38:04.870Z,10.80
2022-09-21T20:40:32.169Z,10.80
2022-09-21T20:43:01.022Z,10.80
2022-09-21T20:45:29.683Z,10.70
2022-09-21T20:48:17.015Z,10.70
2022-09-21T20:50:50.314Z,10.70
2022-09-21T20:53:19.173Z,10.60
2022-09-21T20:55:58.031Z,10.60
2022-09-21T20:58:25.296Z,10.50
2022-09-21T21:00:56.438Z,10.60
2022-09-21T21:03:25.620Z,10.50
2022-09-21T21:05:52.437Z,10.40
2022-09-21T21:08:19.401Z,10.40
2022-09-21T21:10:49.310Z,10.30
2022-09-21T21:13:16.161Z,10.30
2022-09-21T21:15:43.003Z,10.30
2022-09-21T21:18:12.236Z,10.20
2022-09-21T21:20:39.638Z,10.20
2022-09-21T21:23:08.400Z,10.20
2022-09-21T21:25:35.940Z,10.10
2022-09-21T21:28:03.139Z,10.10
2022-09-21T21:30:31.029Z,10.10
2022-09-21T21:32:57.871Z,10.10
2022-09-21T21:35:25.827Z,10.00
2022-09-21T21:37:52.644Z,10.00
2022-09-21T21:40:20.615Z,9.90
2022-09-21T21:42:47.509Z,9.90
2022-09-21T21:45:14.345Z,9.90
2022-09-21T21:47:41.611Z,9.80
2022-09-21T21:50:10.628Z,9.80
2022-09-21T21:52:38.113Z,9.80
2022-09-21T21:55:06.561Z,9.70
2022-09-21T21:57:33.521Z,9.70
2022-09-21T22:00:00.487Z,9.70
2022-09-21T22:02:29.252Z,9.70
2022-09-21T22:04:56.222Z,9.60
2022-09-21T22:07:23.228Z,9.60
2022-09-21T22:09:50.042Z,9.50
2022-09-21T22:12:16.959Z,9.50
2022-09-21T22:14:46.195Z,9.50
2022-09-21T22:17:13.496Z,9.50
2022-09-21T22:19:40.333Z,9.40
2022-09-21T22:22:07.152Z,9.40
2022-09-21T22:24:34.177Z,9.40
2022-09-21T22:27:01.048Z,9.40
2022-09-21T22:29:27.823Z,9.30
2022-09-21T22:31:55.586Z,9.30
2022-09-21T22:34:22.486Z,9.30
2022-09-21T22:36:50.620Z,9.20
2022-09-21T22:39:17.702Z,9.20
2022-09-21T22:41:44.691Z,9.20
2022-09-21T22:44:12.135Z,9.20
2022-09-21T22:46:39.643Z,9.10
2022-09-21T22:49:07.617Z,9.10
2022-09-21T22:51:35.163Z,9.10
2022-09-21T22:54:02.162Z,9.10
2022-09-21T22:56:33.006Z,9.00
2022-09-21T22:59:02.473Z,9.00
2022-09-21T23:01:36.925Z,9.00
2022-09-21T23:04:08.427Z,9.00
2022-09-21T23:06:37.870Z,8.90
2022-09-21T23:09:09.337Z,8.90
2022-09-21T23:11:43.232Z,8.90
2022-09-21T23:14:11.673Z,8.80
2022-09-21T23:16:38.658Z,8.80
2022-09-21T23:19:05.623Z,8.80
2022-09-21T23:21:32.595Z,8.80
2022-09-21T23:24:02.484Z,8.70
2022-09-21T23:26:32.101Z,8.70
2022-09-21T23:29:08.177Z,8.70
2022-09-21T23:31:35.669Z,8.70
2022-09-21T23:34:08.754Z,8.60
2022-09-21T23:36:36.500Z,8.70
2022-09-21T23:39:07.054Z,8.60
2022-09-21T23:41:36.322Z,8.60
2022-09-21T23:44:04.314Z,8.50
2022-09-21T23:46:35.345Z,8.50
2022-09-21T23:49:03.329Z,8.50
2022-09-21T23:51:30.299Z,8.50
2022-09-21T23:53:58.731Z,8.50
2022-09-21T23:56:27.051Z,8.50
2022-09-21T23:58:54.562Z,8.40
